Time;durP1;ratioP1;P1;durP2;ratioP2;P2;SDS_P1;SDS_P2;PMS_P1;PMS_P2;Temp;Humidity;BMP_temperature;BMP_pressure;BME280_temperature;BME280_humidity;BME280_pressure;Samples;Min_cycle;Max_cycle;Signal;HPM_P1;HPM_P2
2023/09/21 00:00:45;;;;;;;1.33;1.17;;;;;;;21.00;55.05;99905.25;5108866;28;20064;-75
2023/09/21 00:03:11;;;;;;;1.40;0.93;;;;;;;21.10;54.92;99916.47;5110354;28;20020;-75
2023/09/21 00:05:39;;;;;;;1.58;1.02;;;;;;;21.28;54.49;99945.59;5108299;28;20028;-75
2023/09/21 00:08:06;;;;;;;2.03;1.40;;;;;;;21.21;55.02;99938.31;5107802;28;20016;-75
2023/09/21 00:10:32;;;;;;;1.38;1.13;;;;;;;21.02;55.25;99903.16;5110842;28;20470;-75
2023/09/21 00:13:00;;;;;;;1.50;1.35;;;;;;;21.28;55.14;99932.06;5092392;28;20032;-75
2023/09/21 00:15:29;;;;;;;1.48;1.20;;;;;;;21.28;55.29;99940.19;5110813;28;20098;-75
2023/09/21 00:17:55;;;;;;;1.20;1.05;;;;;;;21.26;55.25;99939.56;5112335;28;20570;-74
2023/09/21 00:20:23;;;;;;;1.60;1.20;;;;;;;21.28;54.80;99934.78;5114103;28;20048;-75
2023/09/21 00:22:55;;;;;;;1.45;1.20;;;;;;;21.27;54.90;99933.94;5112354;28;20020;-75
2023/09/21 00:25:22;;;;;;;2.03;1.23;;;;;;;21.17;54.95;99922.72;5112902;28;20051;-75
2023/09/21 00:27:48;;;;;;;1.98;1.40;;;;;;;21.07;54.99;99903.38;5113476;28;20017;-75
2023/09/21 00:30:13;;;;;;;1.70;1.40;;;;;;;21.27;54.88;99925.00;5096904;28;20026;-75
2023/09/21 00:32:39;;;;;;;1.55;1.23;;;;;;;21.26;54.88;99917.94;5116701;28;20023;-75
2023/09/21 00:35:11;;;;;;;1.42;1.00;;;;;;;21.26;55.05;99920.66;5110863;28;20020;-75
2023/09/21 00:37:37;;;;;;;2.88;1.30;;;;;;;21.03;54.64;99884.06;5117313;28;20098;-75
2023/09/21 00:40:17;;;;;;;2.00;1.27;;;;;;;21.18;55.05;99906.28;5109604;28;20019;-75
2023/09/21 00:42:43;;;;;;;1.70;1.10;;;;;;;21.23;55.14;99902.97;5110457;28;20024;-74
2023/09/21 00:45:08;;;;;;;1.27;1.17;;;;;;;21.07;55.05;99876.34;5120472;28;20063;-75
2023/09/21 00:47:39;;;;;;;1.35;1.02;;;;;;;21.24;54.90;99896.53;5116752;28;20016;-75
2023/09/21 00:50:09;;;;;;;1.73;1.00;;;;;;;21.25;54.89;99887.38;5108488;28;20035;-75
2023/09/21 00:52:35;;;;;;;1.52;1.17;;;;;;;21.15;54.91;99863.50;5118373;28;20035;-75
2023/09/21 00:55:01;;;;;;;1.10;1.00;;;;;;;20.86;54.98;99823.38;5114617;28;20023;-75
2023/09/21 00:57:26;;;;;;;1.42;1.20;;;;;;;21.01;54.77;99839.34;5115992;28;20076;-75
2023/09/21 00:59:52;;;;;;;1.50;1.00;;;;;;;21.13;54.80;99860.16;5108094;28;20032;-75
2023/09/21 01:02:18;;;;;;;2.13;0.98;;;;;;;20.59;54.95;99765.78;5106962;28;20045;-75
2023/09/21 01:04:43;;;;;;;2.05;1.50;;;;;;;21.02;54.82;99831.03;5108640;28;20024;-75
2023/09/21 01:07:17;;;;;;;2.63;1.30;;;;;;;21.22;55.01;99858.88;5122870;28;20496;-75
2023/09/21 01:09:44;;;;;;;1.65;1.20;;;;;;;21.22;54.73;99867.00;5113971;28;20059;-75
2023/09/21 01:12:11;;;;;;;2.53;1.05;;;;;;;21.21;54.76;99868.03;5116677;28;20096;-75
2023/09/21 01:14:37;;;;;;;1.42;1.27;;;;;;;21.22;54.92;99863.47;5117905;27;20032;-75
2023/09/21 01:17:02;;;;;;;2.25;1.35;;;;;;;21.12;55.00;99842.28;5110261;28;20030;-75
2023/09/21 01:19:28;;;;;;;2.03;1.20;;;;;;;21.21;54.77;99854.53;5118503;28;20028;-75
2023/09/21 01:21:54;;;;;;;2.00;1.30;;;;;;;21.15;54.67;99847.28;5117535;28;20027;-75
2023/09/21 01:24:23;;;;;;;1.60;1.10;;;;;;;21.15;54.97;99847.28;5109489;28;20024;-75
2023/09/21 01:26:48;;;;;;;1.73;1.20;;;;;;;20.95;54.74;99809.44;5120006;28;20051;-75
2023/09/21 01:29:14;;;;;;;1.35;1.23;;;;;;;21.18;54.67;99840.59;5114134;28;20031;-75
2023/09/21 01:31:39;;;;;;;1.42;1.20;;;;;;;21.21;54.83;99846.41;5106969;28;20521;-75
2023/09/21 01:34:05;;;;;;;1.88;1.25;;;;;;;21.04;54.84;99812.75;5120722;28;20121;-75
2023/09/21 01:36:32;;;;;;;1.70;1.35;;;;;;;21.19;54.80;99828.72;5121281;28;20046;-74
2023/09/21 01:38:58;;;;;;;1.23;1.00;;;;;;;21.19;54.99;99832.25;5113375;28;20028;-75
2023/09/21 01:41:23;;;;;;;1.77;1.30;;;;;;;21.12;54.58;99815.25;5119419;28;20032;-75
2023/09/21 01:43:49;;;;;;;1.95;1.20;;;;;;;21.16;55.00;99826.47;5105690;28;20032;-75
2023/09/21 01:46:18;;;;;;;1.92;1.13;;;;;;;21.18;54.70;99819.78;5109799;28;20057;-75
2023/09/21 01:48:44;;;;;;;2.03;1.40;;;;;;;21.18;54.89;99814.38;5106941;28;20020;-75
2023/09/21 01:51:12;;;;;;;1.30;1.10;;;;;;;21.18;54.82;99811.69;5106612;28;20024;-75
2023/09/21 01:53:37;;;;;;;1.30;1.00;;;;;;;21.12;54.98;99798.19;5111785;28;20051;-75
2023/09/21 01:56:02;;;;;;;1.42;1.10;;;;;;;21.05;55.08;99784.69;5110657;28;20097;-75
2023/09/21 01:58:28;;;;;;;2.53;1.25;;;;;;;21.17;54.98;99810.03;5108978;28;20024;-75
2023/09/21 02:00:53;;;;;;;2.85;1.38;;;;;;;21.05;54.73;99786.56;5113665;28;20107;-75
2023/09/21 02:03:25;;;;;;;1.90;1.10;;;;;;;21.17;54.88;99811.91;5108495;28;20090;-75
2023/09/21 02:05:50;;;;;;;1.67;1.17;;;;;;;21.16;55.00;99805.69;5110455;28;20380;-75
2023/09/21 02:08:19;;;;;;;1.10;1.00;;;;;;;20.96;54.61;99767.03;5106134;28;20112;-75
2023/09/21 02:10:49;;;;;;;1.25;0.95;;;;;;;21.17;54.87;99801.91;5105872;28;20546;-75
2023/09/21 02:13:15;;;;;;;1.85;1.20;;;;;;;21.16;54.97;99794.03;5110299;28;20020;-75
2023/09/21 02:15:41;;;;;;;1.40;1.30;;;;;;;21.17;54.75;99796.50;5111118;28;20027;-75
2023/09/21 02:18:09;;;;;;;1.60;1.20;;;;;;;21.13;54.57;99791.75;5109539;28;20094;-74
2023/09/21 02:20:36;;;;;;;1.48;1.05;;;;;;;21.16;55.02;99796.75;5111678;28;20027;-75
2023/09/21 02:23:02;;;;;;;1.50;1.10;;;;;;;21.12;54.82;99782.81;5105841;28;20034;-75
2023/09/21 02:25:34;;;;;;;1.90;1.50;;;;;;;21.01;54.98;99764.53;5108546;28;20055;-75
2023/09/21 02:27:59;;;;;;;1.45;1.17;;;;;;;21.01;54.78;99753.72;5112379;28;20047;-75
2023/09/21 02:30:25;;;;;;;1.65;1.27;;;;;;;20.95;54.84;99754.56;5104786;28;20031;-75
2023/09/21 02:32:52;;;;;;;1.88;1.20;;;;;;;21.15;54.62;99778.84;5107777;28;20031;-75
2023/09/21 02:35:24;;;;;;;2.03;0.90;;;;;;;21.14;54.58;99771.78;5113775;28;20016;-75
2023/09/21 02:37:51;;;;;;;1.35;1.17;;;;;;;21.05;54.72;99773.03;5112003;28;20033;-75
2023/09/21 02:40:19;;;;;;;1.65;1.50;;;;;;;20.93;55.04;99735.00;5098563;28;20051;-74
2023/09/21 02:43:03;;;;;;;1.60;1.30;;;;;;;21.13;54.90;99772.81;5114986;28;20024;-75
2023/09/21 02:45:29;;;;;;;1.77;1.30;;;;;;;21.11;54.84;99764.06;5112664;28;20028;-75
2023/09/21 02:48:00;;;;;;;1.23;0.90;;;;;;;21.00;54.91;99752.06;5106427;28;20027;-75
2023/09/21 02:50:25;;;;;;;2.15;1.67;;;;;;;20.79;54.57;99707.19;5120946;28;20036;-75
2023/09/21 02:52:55;;;;;;;1.63;1.20;;;;;;;21.12;54.61;99760.34;5108389;28;20115;-75
2023/09/21 02:55:26;;;;;;;1.98;1.10;;;;;;;21.02;54.73;99747.25;5115764;28;20084;-75
2023/09/21 02:57:56;;;;;;;2.03;1.30;;;;;;;21.11;54.81;99761.38;5113128;28;20053;-75
2023/09/21 03:00:35;;;;;;;1.52;1.20;;;;;;;20.93;54.85;99735.84;5109729;28;20052;-75
2023/09/21 03:03:07;;;;;;;1.55;1.13;;;;;;;21.11;54.62;99753.28;5119758;28;20063;-75
2023/09/21 03:05:36;;;;;;;1.60;1.10;;;;;;;20.91;54.72;99729.00;5104979;28;20114;-75
2023/09/21 03:08:13;;;;;;;1.65;1.20;;;;;;;21.10;54.71;99755.16;5105799;28;20019;-75
2023/09/21 03:10:47;;;;;;;1.60;1.10;;;;;;;21.10;54.96;99757.84;5117389;28;20034;-75
2023/09/21 03:13:22;;;;;;;1.77;1.00;;;;;;;21.10;54.83;99768.66;5120998;28;20387;-75
2023/09/21 03:15:50;;;;;;;2.28;1.30;;;;;;;21.05;54.69;99759.53;5104619;28;20504;-75
2023/09/21 03:18:18;;;;;;;1.73;1.33;;;;;;;21.10;54.58;99757.03;5115442;28;20049;-75
2023/09/21 03:20:44;;;;;;;2.03;1.33;;;;;;;21.09;54.86;99756.19;5104090;28;20061;-75
2023/09/21 03:23:10;;;;;;;1.60;1.17;;;;;;;21.09;54.60;99758.91;5115546;28;20024;-74
2023/09/21 03:25:40;;;;;;;1.60;1.05;;;;;;;21.09;54.98;99752.66;5113477;28;20024;-75
2023/09/21 03:28:10;;;;;;;1.38;1.00;;;;;;;21.09;54.66;99750.78;5103689;28;20023;-75
2023/09/21 03:30:39;;;;;;;1.48;1.17;;;;;;;21.04;54.75;99744.38;5104075;28;20020;-75
2023/09/21 03:33:08;;;;;;;2.35;1.13;;;;;;;21.09;55.04;99755.38;5110529;28;20024;-75
2023/09/21 03:35:34;;;;;;;1.83;1.25;;;;;;;21.08;54.89;99756.41;5108003;28;20019;-75
2023/09/21 03:37:59;;;;;;;1.70;1.00;;;;;;;20.92;54.61;99727.97;5116330;28;20033;-75
2023/09/21 03:40:30;;;;;;;1.40;1.10;;;;;;;20.92;55.10;99720.69;5109323;28;20028;-75
2023/09/21 03:42:56;;;;;;;2.65;1.33;;;;;;;21.06;54.71;99742.25;5097342;28;20061;-75
2023/09/21 03:45:25;;;;;;;1.92;1.17;;;;;;;20.99;54.78;99730.66;5115144;28;20535;-75
2023/09/21 03:47:53;;;;;;;1.58;1.10;;;;;;;21.05;54.65;99741.44;5109476;28;20016;-75
2023/09/21 03:50:19;;;;;;;1.70;1.20;;;;;;;20.92;54.71;99722.56;5113908;28;20030;-75
2023/09/21 03:52:45;;;;;;;1.42;1.02;;;;;;;20.91;54.84;99715.50;5109849;28;20028;-75
2023/09/21 03:55:13;;;;;;;1.83;1.30;;;;;;;20.85;54.70;99698.22;5091113;28;20052;-75
2023/09/21 03:57:38;;;;;;;1.35;1.00;;;;;;;21.05;54.95;99730.63;5108469;28;20027;-75
2023/09/21 04:02:49;;;;;;;1.38;1.08;;;;;;;20.85;54.65;99697.41;5119240;28;20088;-75
2023/09/21 04:05:20;;;;;;;2.25;1.00;;;;;;;21.04;54.67;99723.56;5106756;28;20024;-75
2023/09/21 04:07:46;;;;;;;1.40;1.20;;;;;;;20.96;54.55;99710.28;5105539;28;20022;-75
2023/09/21 04:10:12;;;;;;;2.00;1.20;;;;;;;20.85;54.89;99684.72;5108095;28;20085;-75
2023/09/21 04:12:39;;;;;;;1.45;0.90;;;;;;;20.93;54.73;99699.88;5103270;28;20028;-75
2023/09/21 04:15:06;;;;;;;1.60;1.10;;;;;;;20.89;54.57;99695.94;5112707;27;20114;-75
2023/09/21 04:17:32;;;;;;;1.38;1.02;;;;;;;21.02;54.84;99717.53;5108407;28;20027;-75
2023/09/21 04:19:57;;;;;;;1.33;0.90;;;;;;;20.84;55.04;99684.94;5107496;28;20157;-75
2023/09/21 04:22:22;;;;;;;2.60;1.45;;;;;;;20.86;54.67;99683.72;5107434;28;20111;-75
2023/09/21 04:24:47;;;;;;;1.50;1.10;;;;;;;21.02;54.74;99708.59;5110895;28;20046;-75
2023/09/21 04:27:13;;;;;;;1.50;1.20;;;;;;;21.01;54.59;99705.06;5108166;28;20094;-75
2023/09/21 04:29:38;;;;;;;1.88;1.20;;;;;;;20.91;54.62;99688.47;5106879;28;20492;-75
2023/09/21 04:32:04;;;;;;;1.40;1.02;;;;;;;20.94;54.75;99693.44;5111780;28;20066;-75
2023/09/21 04:34:31;;;;;;;1.95;1.30;;;;;;;20.87;54.92;99677.25;5118255;28;20084;-75
2023/09/21 04:36:56;;;;;;;1.08;0.90;;;;;;;21.01;54.80;99705.06;5108030;28;20024;-75
2023/09/21 04:39:23;;;;;;;2.35;1.15;;;;;;;20.99;54.75;99696.34;5111625;28;20027;-75
2023/09/21 04:41:48;;;;;;;2.30;1.38;;;;;;;20.99;54.63;99693.66;5108796;28;20103;-75
2023/09/21 04:44:14;;;;;;;1.88;1.30;;;;;;;20.85;54.73;99673.09;5109417;28;20031;-75
2023/09/21 04:46:41;;;;;;;1.50;1.15;;;;;;;20.80;54.88;99671.03;5113721;28;20032;-75
2023/09/21 04:49:07;;;;;;;1.10;1.00;;;;;;;20.98;55.01;99700.06;5117867;28;20031;-75
2023/09/21 04:51:33;;;;;;;1.45;1.10;;;;;;;20.77;54.69;99671.44;5107630;28;21193;-75
2023/09/21 04:53:58;;;;;;;2.20;1.23;;;;;;;20.92;54.64;99695.53;5118082;28;20468;-75
2023/09/21 04:56:23;;;;;;;1.65;1.20;;;;;;;20.99;54.63;99700.94;5108344;28;20036;-75
2023/09/21 04:58:51;;;;;;;1.52;1.10;;;;;;;20.99;54.57;99701.75;5110650;28;20484;-75
2023/09/21 05:01:18;;;;;;;1.38;1.13;;;;;;;20.90;54.76;99693.06;5113451;28;20030;-75
2023/09/21 05:03:44;;;;;;;1.52;1.25;;;;;;;20.83;54.64;99684.13;5112854;28;20051;-75
2023/09/21 05:06:10;;;;;;;1.27;1.17;;;;;;;20.94;54.86;99696.13;5112511;28;20105;-75
2023/09/21 05:08:36;;;;;;;2.13;1.42;;;;;;;20.83;54.90;99689.53;5122071;28;20055;-75
2023/09/21 05:11:04;;;;;;;3.30;1.30;;;;;;;20.86;54.95;99686.41;5108059;28;20028;-75
2023/09/21 05:13:29;;;;;;;1.55;1.17;;;;;;;20.87;54.73;99700.75;5119352;27;20039;-75
2023/09/21 05:15:54;;;;;;;2.03;1.30;;;;;;;20.69;54.73;99664.41;5120924;27;20488;-75
2023/09/21 05:18:20;;;;;;;1.90;1.02;;;;;;;20.81;55.01;99683.47;5109965;28;20395;-75
2023/09/21 05:20:45;;;;;;;1.60;1.17;;;;;;;20.89;54.67;99702.19;5122802;28;20073;-75
2023/09/21 05:23:11;;;;;;;1.40;1.00;;;;;;;20.77;54.68;99687.66;5118522;28;20465;-75
2023/09/21 05:25:36;;;;;;;1.27;0.95;;;;;;;20.96;54.57;99704.88;5111750;28;20023;-75
2023/09/21 05:28:02;;;;;;;1.25;1.00;;;;;;;20.74;54.84;99671.06;5119000;28;20461;-75
2023/09/21 05:30:30;;;;;;;2.13;1.20;;;;;;;20.87;54.82;99698.03;5113150;28;20051;-75
2023/09/21 05:32:56;;;;;;;1.40;1.20;;;;;;;20.70;54.93;99666.06;5114138;28;20020;-75
2023/09/21 05:35:23;;;;;;;2.05;1.20;;;;;;;20.78;54.74;99669.59;5117230;28;20027;-75
2023/09/21 05:37:48;;;;;;;2.25;1.30;;;;;;;20.96;54.81;99697.59;5110271;28;20027;-75
2023/09/21 05:40:14;;;;;;;1.85;1.13;;;;;;;20.71;54.92;99659.63;5116712;28;20028;-75
2023/09/21 05:42:41;;;;;;;2.10;1.20;;;;;;;20.81;54.41;99677.25;5116614;28;20019;-75
2023/09/21 05:45:07;;;;;;;1.77;1.20;;;;;;;20.97;55.01;99711.94;5110152;28;20114;-75
2023/09/21 05:47:33;;;;;;;1.10;0.98;;;;;;;20.98;54.57;99710.88;5102587;28;20028;-75
2023/09/21 05:49:58;;;;;;;1.30;1.08;;;;;;;20.97;55.11;99707.34;5115595;28;20031;-75
2023/09/21 05:52:24;;;;;;;1.80;1.40;;;;;;;20.97;54.88;99704.66;5108466;28;20028;-75
2023/09/21 05:54:49;;;;;;;1.98;1.50;;;;;;;20.97;54.92;99701.13;5119998;28;20108;-75
2023/09/21 05:57:16;;;;;;;1.20;1.08;;;;;;;20.81;54.71;99688.06;5096670;28;20039;-74
2023/09/21 05:59:41;;;;;;;1.75;1.27;;;;;;;20.99;54.70;99706.34;5116449;28;20027;-75
2023/09/21 06:02:13;;;;;;;1.65;1.10;;;;;;;20.92;54.85;99693.66;5120205;28;20016;-75
2023/09/21 06:04:39;;;;;;;1.55;1.10;;;;;;;20.97;54.81;99701.94;5111703;28;20020;-75
2023/09/21 06:07:04;;;;;;;1.52;1.10;;;;;;;20.99;54.87;99706.34;5109721;28;20054;-75
2023/09/21 06:09:30;;;;;;;1.25;1.00;;;;;;;20.99;54.49;99712.56;5110513;28;20052;-75
2023/09/21 06:11:55;;;;;;;1.85;1.27;;;;;;;20.99;54.50;99687.44;5103751;28;20046;-75
2023/09/21 06:14:21;;;;;;;1.55;1.30;;;;;;;20.60;54.87;99627.88;5112863;27;20020;-75
2023/09/21 06:16:47;;;;;;;1.83;1.20;;;;;;;20.92;54.58;99690.97;5106704;28;20024;-75
2023/09/21 06:19:13;;;;;;;1.23;1.08;;;;;;;21.00;54.60;99689.06;5108099;28;20039;-75
2023/09/21 06:21:39;;;;;;;1.33;1.10;;;;;;;20.99;54.48;99684.72;5110162;28;20032;-75
2023/09/21 06:24:05;;;;;;;1.77;1.20;;;;;;;20.81;54.59;99658.34;5108046;28;20024;-75
2023/09/21 06:26:31;;;;;;;2.05;1.30;;;;;;;20.74;54.77;99654.84;5108039;28;20496;-75
2023/09/21 06:28:56;;;;;;;1.50;1.20;;;;;;;20.86;54.96;99670.19;5110767;27;20032;-75
2023/09/21 06:31:22;;;;;;;2.83;1.15;;;;;;;20.82;54.79;99660.84;5109994;28;20083;-75
2023/09/21 06:33:48;;;;;;;1.42;1.10;;;;;;;20.60;54.76;99621.63;5109787;28;20050;-75
2023/09/21 06:36:20;;;;;;;2.03;1.42;;;;;;;20.99;54.94;99676.63;5109080;28;20031;-75
2023/09/21 06:38:50;;;;;;;1.58;1.27;;;;;;;20.90;55.01;99668.75;5111288;28;20044;-75
2023/09/21 06:41:15;;;;;;;2.20;1.10;;;;;;;20.85;54.66;99655.00;5110200;28;20019;-75
2023/09/21 06:43:44;;;;;;;1.25;0.90;;;;;;;21.00;54.72;99672.88;5110053;28;20022;-75
2023/09/21 06:46:10;;;;;;;1.73;1.05;;;;;;;20.86;54.64;99656.69;5110959;27;20024;-75
2023/09/21 06:48:35;;;;;;;2.65;1.40;;;;;;;20.76;54.63;99631.97;5111107;28;20039;-75
2023/09/21 06:51:01;;;;;;;1.80;1.35;;;;;;;21.01;54.60;99677.22;5111402;28;20024;-75
2023/09/21 06:53:29;;;;;;;1.33;1.10;;;;;;;20.76;54.76;99647.34;5097893;28;20459;-75
2023/09/21 06:55:54;;;;;;;1.73;1.20;;;;;;;20.93;54.83;99679.09;5112219;28;20035;-75
2023/09/21 06:58:20;;;;;;;1.95;1.50;;;;;;;21.00;54.79;99689.06;5111710;28;20020;-75
2023/09/21 07:00:45;;;;;;;1.67;1.23;;;;;;;20.81;54.71;99667.28;5097261;28;20061;-75
2023/09/21 07:03:11;;;;;;;2.10;1.42;;;;;;;20.99;54.81;99693.66;5122799;28;20053;-75
2023/09/21 07:05:36;;;;;;;1.70;1.13;;;;;;;21.01;54.70;99691.56;5112719;28;20039;-75
2023/09/21 07:08:02;;;;;;;1.58;1.20;;;;;;;21.01;54.58;99702.38;5108832;28;20468;-75
2023/09/21 07:10:27;;;;;;;1.20;1.10;;;;;;;21.02;55.03;99703.19;5117601;28;20032;-75
2023/09/21 07:12:53;;;;;;;1.50;1.05;;;;;;;20.65;54.57;99646.16;5112006;28;20028;-75
2023/09/21 07:15:19;;;;;;;1.35;0.95;;;;;;;20.81;54.69;99671.84;5105549;28;20083;-75
2023/09/21 07:17:45;;;;;;;1.60;1.20;;;;;;;20.96;54.93;99689.50;5119414;28;20031;-75
2023/09/21 07:20:11;;;;;;;1.75;1.30;;;;;;;21.02;54.98;99700.50;5111162;28;20035;-75
2023/09/21 07:22:36;;;;;;;2.42;1.25;;;;;;;20.80;54.75;99675.59;5105431;28;20012;-75
2023/09/21 07:25:03;;;;;;;1.92;1.23;;;;;;;21.02;54.57;99712.13;5115940;28;20050;-75
2023/09/21 07:27:28;;;;;;;1.80;1.30;;;;;;;20.95;54.76;99706.75;5114750;28;20027;-75
2023/09/21 07:29:56;;;;;;;2.58;1.25;;;;;;;20.76;54.61;99679.78;5121747;28;20046;-75
2023/09/21 07:32:25;;;;;;;1.15;1.00;;;;;;;20.80;54.94;99687.22;5115456;28;20024;-75
2023/09/21 07:34:50;;;;;;;2.73;1.50;;;;;;;21.02;54.96;99717.53;5112226;28;20034;-75
2023/09/21 07:37:16;;;;;;;2.83;1.60;;;;;;;20.52;54.74;99640.75;5114735;28;20270;-75
2023/09/21 07:39:42;;;;;;;1.45;1.17;;;;;;;20.82;54.87;99687.88;5104216;28;20024;-75
2023/09/21 07:42:07;;;;;;;1.17;1.08;;;;;;;20.97;54.60;99720.88;5094057;28;20020;-75
2023/09/21 07:44:33;;;;;;;1.40;1.00;;;;;;;20.78;54.75;99685.81;5116921;28;20453;-75
2023/09/21 07:46:59;;;;;;;1.80;1.20;;;;;;;20.94;54.90;99712.34;5115573;28;20024;-75
2023/09/21 07:49:25;;;;;;;1.58;1.30;;;;;;;20.84;54.88;99701.16;5105538;28;20145;-75
2023/09/21 07:51:51;;;;;;;1.80;1.20;;;;;;;20.76;55.03;99688.69;5119912;28;20077;-75
2023/09/21 07:54:16;;;;;;;2.35;1.63;;;;;;;20.78;54.67;99694.75;5109969;28;20023;-75
2023/09/21 07:57:06;;;;;;;1.35;1.10;;;;;;;21.03;54.83;99732.72;5108859;28;20095;-75
2023/09/21 07:59:31;;;;;;;1.38;1.10;;;;;;;21.03;54.85;99732.72;5121018;28;20031;-76
2023/09/21 08:01:57;;;;;;;1.77;1.30;;;;;;;21.03;54.80;99730.03;5109480;28;20031;-75
2023/09/21 08:04:22;;;;;;;1.55;1.23;;;;;;;20.68;54.90;99676.25;5112086;28;20035;-76
2023/09/21 08:06:49;;;;;;;2.10;1.60;;;;;;;20.91;55.11;99723.59;5114390;28;20083;-75
2023/09/21 08:09:17;;;;;;;1.38;1.17;;;;;;;20.82;54.94;99706.78;5107305;28;20048;-75
2023/09/21 08:11:42;;;;;;;1.58;1.00;;;;;;;20.66;55.09;99677.50;5116378;28;20058;-75
2023/09/21 08:14:07;;;;;;;2.08;1.23;;;;;;;20.89;55.13;99721.09;5116413;28;20022;-75
2023/09/21 08:16:35;;;;;;;1.50;1.23;;;;;;;20.66;55.13;99681.03;5104884;28;20020;-76
2023/09/21 08:19:01;;;;;;;1.30;1.20;;;;;;;20.84;55.05;99706.56;5108385;28;20032;-75
2023/09/21 08:21:26;;;;;;;2.13;1.20;;;;;;;21.04;54.83;99741.66;5088263;28;20052;-75
2023/09/21 08:23:52;;;;;;;1.75;1.20;;;;;;;20.81;55.24;99701.56;5108682;28;20525;-75
2023/09/21 08:26:18;;;;;;;1.60;1.48;;;;;;;21.03;54.91;99732.72;5104098;28;20028;-75
2023/09/21 08:28:43;;;;;;;1.92;1.30;;;;;;;21.04;55.16;99730.84;5104195;28;20028;-75
2023/09/21 08:31:09;;;;;;;1.70;1.20;;;;;;;21.04;54.94;99738.97;5119055;28;20101;-75
2023/09/21 08:33:35;;;;;;;1.42;1.10;;;;;;;20.86;54.90;99710.72;5107764;28;20031;-75
2023/09/21 08:36:00;;;;;;;2.00;1.30;;;;;;;20.93;54.98;99726.91;5106201;28;20038;-75
2023/09/21 08:38:26;;;;;;;1.65;1.38;;;;;;;20.77;54.97;99706.56;5108383;28;20084;-75
2023/09/21 08:40:52;;;;;;;2.25;1.23;;;;;;;20.95;54.82;99736.47;5109209;28;20023;-75
2023/09/21 08:43:25;;;;;;;2.22;1.42;;;;;;;20.95;55.07;99738.34;5121768;28;20016;-75
2023/09/21 08:45:51;;;;;;;2.13;1.33;;;;;;;20.84;55.23;99723.59;5114239;28;20049;-75
2023/09/21 08:48:19;;;;;;;2.58;1.27;;;;;;;20.78;55.42;99710.94;5111458;28;20035;-75
2023/09/21 08:50:45;;;;;;;1.60;1.40;;;;;;;20.98;55.25;99756.81;5109818;28;20379;-75
2023/09/21 08:53:13;;;;;;;2.10;1.20;;;;;;;21.02;55.44;99768.03;5098550;28;20020;-75
2023/09/21 08:55:39;;;;;;;1.83;1.00;;;;;;;21.02;55.09;99770.75;5107637;28;20020;-75
2023/09/21 08:58:06;;;;;;;1.92;1.70;;;;;;;21.02;55.05;99779.69;5112342;28;20291;-75
2023/09/21 09:00:33;;;;;;;1.80;1.23;;;;;;;21.02;55.50;99786.97;5114249;28;20019;-75
2023/09/21 09:02:59;;;;;;;1.48;1.20;;;;;;;20.80;55.38;99746.66;5111907;28;20114;-75
2023/09/21 09:05:24;;;;;;;1.90;1.48;;;;;;;21.01;55.11;99782.59;5111901;28;20016;-75
2023/09/21 09:07:50;;;;;;;2.50;1.30;;;;;;;20.87;55.44;99766.41;5114040;28;20524;-75
2023/09/21 09:10:15;;;;;;;1.98;1.45;;;;;;;20.82;55.07;99763.50;5123508;28;20051;-75
2023/09/21 09:12:41;;;;;;;1.90;1.48;;;;;;;21.01;55.26;99788.84;5113123;28;20054;-76
2023/09/21 09:15:08;;;;;;;2.25;1.55;;;;;;;21.01;55.39;99794.25;5117327;27;20028;-75
2023/09/21 09:17:35;;;;;;;1.17;1.08;;;;;;;21.02;55.17;99800.47;5119003;28;20101;-75
2023/09/21 09:20:03;;;;;;;1.75;1.45;;;;;;;20.94;55.31;99796.97;5096103;28;20058;-75
2023/09/21 09:22:33;;;;;;;1.95;1.60;;;;;;;20.82;55.55;99781.59;5115019;28;20024;-75
2023/09/21 09:25:06;;;;;;;2.10;1.23;;;;;;;21.01;55.64;99810.47;5101047;28;20027;-75
2023/09/21 09:27:32;;;;;;;3.30;1.77;;;;;;;21.01;55.54;99794.25;5123913;28;20020;-75
2023/09/21 09:29:57;;;;;;;2.40;1.25;;;;;;;20.76;55.29;99764.34;5113960;28;20020;-75
2023/09/21 09:32:23;;;;;;;1.80;1.50;;;;;;;20.93;55.26;99797.16;5121456;28;20070;-75
2023/09/21 09:34:49;;;;;;;2.05;1.20;;;;;;;20.99;55.50;99800.91;5122680;28;20385;-75
2023/09/21 09:37:16;;;;;;;1.75;1.20;;;;;;;21.00;55.25;99805.28;5106396;28;20027;-76
2023/09/21 09:39:45;;;;;;;2.00;1.42;;;;;;;20.99;55.77;99809.84;5112714;28;20078;-75
2023/09/21 09:42:13;;;;;;;2.00;1.40;;;;;;;20.81;55.63;99791.53;5119262;28;20020;-75
2023/09/21 09:44:44;;;;;;;2.42;1.50;;;;;;;21.01;55.51;99806.94;5115631;28;20031;-76
2023/09/21 09:47:12;;;;;;;1.95;1.38;;;;;;;20.99;55.44;99815.25;5118060;28;20397;-75
2023/09/21 09:49:41;;;;;;;2.13;1.33;;;;;;;20.99;55.43;99804.44;5116860;28;20024;-75
2023/09/21 09:52:11;;;;;;;2.90;1.50;;;;;;;20.80;55.55;99792.59;5097773;28;20564;-75
2023/09/21 09:54:36;;;;;;;2.33;1.48;;;;;;;20.93;55.62;99799.84;5118141;28;20028;-75
2023/09/21 09:57:04;;;;;;;2.50;1.38;;;;;;;20.86;55.77;99799.88;5114618;28;20024;-75
2023/09/21 09:59:30;;;;;;;1.20;1.10;;;;;;;20.70;55.39;99767.88;5111405;28;20032;-75
2023/09/21 10:01:56;;;;;;;1.77;1.20;;;;;;;20.91;55.63;99796.56;5118720;28;20472;-75
2023/09/21 10:04:22;;;;;;;1.85;1.40;;;;;;;20.99;55.60;99803.63;5113559;28;20039;-75
2023/09/21 10:06:47;;;;;;;1.58;1.27;;;;;;;20.78;55.54;99745.22;5110016;28;20028;-75
2023/09/21 10:09:14;;;;;;;1.23;1.13;;;;;;;20.85;55.67;99771.19;5119199;28;20122;-75
2023/09/21 10:11:46;;;;;;;2.45;1.60;;;;;;;20.96;55.45;99802.97;5112250;28;20044;-75
2023/09/21 10:14:16;;;;;;;1.90;1.50;;;;;;;20.71;55.76;99772.25;5125630;27;20030;-75
2023/09/21 10:16:49;;;;;;;2.22;1.20;;;;;;;20.96;55.86;99819.19;5117595;28;20040;-75
2023/09/21 10:19:22;;;;;;;1.83;1.60;;;;;;;20.71;55.61;99778.47;5112993;28;20028;-75
2023/09/21 10:21:49;;;;;;;1.67;1.30;;;;;;;20.97;55.80;99818.16;5114723;28;20545;-75
2023/09/21 10:24:18;;;;;;;3.30;1.85;;;;;;;20.97;55.63;99820.03;5115676;28;20028;-75
2023/09/21 10:26:49;;;;;;;1.40;1.15;;;;;;;20.86;55.62;99791.78;5109496;28;20119;-75
2023/09/21 10:29:19;;;;;;;2.05;1.40;;;;;;;20.97;55.50;99801.09;5097581;28;20153;-75
2023/09/21 10:31:46;;;;;;;1.42;1.20;;;;;;;20.96;55.90;99796.75;5109276;28;20038;-75
2023/09/21 10:34:19;;;;;;;1.63;1.13;;;;;;;20.95;55.53;99795.91;5124563;28;20047;-75
2023/09/21 10:36:51;;;;;;;1.30;1.00;;;;;;;20.96;55.60;99807.56;5106817;28;20020;-75
2023/09/21 10:39:28;;;;;;;1.30;1.20;;;;;;;20.66;55.47;99753.13;5106252;28;20060;-75
2023/09/21 10:42:02;;;;;;;1.20;1.10;;;;;;;20.95;55.80;99804.03;5109277;28;20091;-74
2023/09/21 10:44:53;;;;;;;1.50;1.10;;;;;;;20.95;55.88;99803.19;5110184;28;20031;-75
2023/09/21 10:47:37;;;;;;;1.40;1.10;;;;;;;20.60;55.83;99748.53;5108772;27;20024;-75
2023/09/21 10:50:04;;;;;;;1.17;1.00;;;;;;;20.93;55.80;99811.50;5111439;28;20028;-75
2023/09/21 10:52:29;;;;;;;1.25;1.00;;;;;;;20.86;55.82;99796.34;5108891;28;20048;-75
2023/09/21 10:54:56;;;;;;;1.65;0.80;;;;;;;20.92;55.77;99793.63;5109770;28;20027;-75
2023/09/21 10:57:26;;;;;;;1.33;1.08;;;;;;;20.80;55.83;99781.78;5108216;28;20087;-75
2023/09/21 10:59:52;;;;;;;1.20;1.10;;;;;;;20.71;55.77;99774.94;5108123;28;20024;-75
2023/09/21 11:02:18;;;;;;;2.80;1.00;;;;;;;20.71;55.69;99770.38;5110664;28;21096;-75
2023/09/21 11:04:44;;;;;;;2.85;1.17;;;;;;;20.69;55.63;99767.06;5113686;28;20656;-75
2023/09/21 11:07:12;;;;;;;1.98;1.30;;;;;;;20.92;55.54;99798.22;5109732;28;20039;-75
2023/09/21 11:09:38;;;;;;;1.42;1.00;;;;;;;20.86;55.54;99783.66;5110653;28;20131;-75
2023/09/21 11:12:05;;;;;;;2.05;1.10;;;;;;;20.71;55.70;99759.56;5110178;28;20072;-75
2023/09/21 11:14:31;;;;;;;1.58;1.17;;;;;;;20.92;55.81;99806.31;5111501;27;20051;-75
2023/09/21 11:16:56;;;;;;;1.30;1.10;;;;;;;20.80;55.60;99780.97;5113581;28;20027;-75
2023/09/21 11:19:22;;;;;;;0.95;0.93;;;;;;;20.79;55.58;99763.91;5105225;28;20034;-75
2023/09/21 11:21:48;;;;;;;2.22;1.10;;;;;;;20.77;55.54;99755.19;5106496;28;20032;-75
2023/09/21 11:24:15;;;;;;;1.92;1.40;;;;;;;20.75;55.50;99740.25;5113715;28;20032;-75
2023/09/21 11:26:49;;;;;;;1.73;1.10;;;;;;;20.92;55.61;99766.59;5119445;28;20028;-75
2023/09/21 11:29:14;;;;;;;1.50;1.10;;;;;;;20.85;55.78;99756.84;5102368;28;20028;-75
2023/09/21 11:31:44;;;;;;;1.88;1.33;;;;;;;20.93;55.62;99762.03;5118232;28;20096;-75
2023/09/21 11:34:10;;;;;;;1.40;0.90;;;;;;;20.84;55.66;99744.38;5109924;28;20024;-75
2023/09/21 11:36:36;;;;;;;1.30;1.10;;;;;;;20.69;55.77;99723.84;5108274;28;20028;-75